Terminal Aerodrome Forecast
Issued by NWS Wichita, KS

Home | Current Version | Previous Version | Graphics & Text | Print | Product List | Glossary On
Versions: 1 2 3 4 5 6 7 8 9 10 11 12 13 14 15 16 17 18 19 20 21 22 23 24 25 26 27 28 29
127
FTUS43 KICT 182142 AAB
TAFICT
TAF AMD
KICT 182142Z 1822/1918 17012KT P6SM FEW100
     FM190400 16008KT 6SM BR SCT015 BKN040
     FM190600 16007KT 5SM BR SCT008 BKN015
     FM190900 16006KT 4SM BR OVC008
      TEMPO 1910/1914 1SM BR BKN004=

USA.gov is the U.S. government's official web portal to all federal, state and local government web resources and services.